createdAt,value
2022-10-19T00:01:39.976Z,11.50
2022-10-19T00:04:08.762Z,11.60
2022-10-19T00:06:36.382Z,11.50
2022-10-19T00:09:06.068Z,11.50
2022-10-19T00:11:33.019Z,11.50
2022-10-19T00:14:00.199Z,11.50
2022-10-19T00:16:28.533Z,11.60
2022-10-19T00:19:01.872Z,11.50
2022-10-19T00:21:28.688Z,11.50
2022-10-19T00:23:55.496Z,11.50
2022-10-19T00:26:22.237Z,11.50
2022-10-19T00:28:48.975Z,11.50
2022-10-19T00:31:17.001Z,11.50
2022-10-19T00:33:46.495Z,11.50
2022-10-19T00:36:18.524Z,11.50
2022-10-19T00:38:45.209Z,11.40
2022-10-19T00:41:11.917Z,11.50
2022-10-19T00:44:13.608Z,11.40
2022-10-19T00:46:42.299Z,11.40
2022-10-19T00:49:23.630Z,11.40
2022-10-19T00:51:58.305Z,11.40
2022-10-19T00:54:25.362Z,11.40
2022-10-19T00:56:53.374Z,11.40
2022-10-19T00:59:23.311Z,11.40
2022-10-19T01:01:50.023Z,11.40
2022-10-19T01:04:16.859Z,11.40
2022-10-19T01:06:43.570Z,11.40
2022-10-19T01:09:10.356Z,11.40
2022-10-19T01:11:57.511Z,11.40
2022-10-19T01:14:29.026Z,11.40
2022-10-19T01:17:14.637Z,11.40
2022-10-19T01:20:12.391Z,11.40
2022-10-19T01:22:47.865Z,11.50
2022-10-19T01:25:17.575Z,11.50
2022-10-19T01:28:04.329Z,11.40
2022-10-19T01:30:45.688Z,11.50
2022-10-19T01:33:18.370Z,11.50
2022-10-19T01:35:46.760Z,11.50
2022-10-19T01:38:31.511Z,11.50
2022-10-19T01:41:32.009Z,11.50
2022-10-19T01:44:00.931Z,11.50
2022-10-19T01:46:38.109Z,11.60
2022-10-19T01:49:44.850Z,11.60
2022-10-19T01:52:13.321Z,11.60
2022-10-19T01:54:42.667Z,11.60
2022-10-19T01:57:10.309Z,11.70
2022-10-19T01:59:37.189Z,11.70
2022-10-19T02:02:04.338Z,11.70
2022-10-19T02:04:31.098Z,11.70
2022-10-19T02:06:57.759Z,11.70
2022-10-19T02:09:24.521Z,11.70
2022-10-19T02:11:57.245Z,11.70
2022-10-19T02:14:28.707Z,11.70
2022-10-19T02:16:59.837Z,11.70
2022-10-19T02:19:26.498Z,11.70
2022-10-19T02:21:53.156Z,11.80
2022-10-19T02:24:20.228Z,11.80
2022-10-19T02:26:46.899Z,11.80
2022-10-19T02:29:14.184Z,11.80
2022-10-19T02:31:40.860Z,11.80
2022-10-19T02:34:07.498Z,11.80
2022-10-19T02:36:34.183Z,11.80
2022-10-19T02:39:00.879Z,11.80
2022-10-19T02:41:55.486Z,11.80
2022-10-19T02:45:02.480Z,11.80
2022-10-19T02:47:32.265Z,11.90
2022-10-19T02:49:59.168Z,11.90
2022-10-19T02:52:25.865Z,11.90
2022-10-19T02:54:52.527Z,11.90
2022-10-19T02:57:23.326Z,11.90
2022-10-19T02:59:50.090Z,11.90
2022-10-19T03:02:17.044Z,11.90
2022-10-19T03:04:44.765Z,11.90
2022-10-19T03:07:15.011Z,11.90
2022-10-19T03:09:42.391Z,11.90
2022-10-19T03:12:09.095Z,11.90
2022-10-19T03:14:36.019Z,11.90
2022-10-19T03:17:02.965Z,11.90
2022-10-19T03:19:29.606Z,11.90
2022-10-19T03:21:56.272Z,11.90
2022-10-19T03:24:22.996Z,12.00
2022-10-19T03:26:49.638Z,12.00
2022-10-19T03:29:16.291Z,12.00
2022-10-19T03:31:43.119Z,12.00
2022-10-19T03:34:09.780Z,12.00
2022-10-19T03:36:38.607Z,12.00
2022-10-19T03:39:12.457Z,12.00
2022-10-19T03:41:39.419Z,12.00
2022-10-19T03:44:06.616Z,12.00
2022-10-19T03:46:33.965Z,12.00
2022-10-19T03:49:00.693Z,12.00
2022-10-19T03:51:28.605Z,12.00
2022-10-19T03:53:58.128Z,12.00
2022-10-19T03:56:25.445Z,12.00
2022-10-19T03:58:52.823Z,12.00
2022-10-19T04:01:25.114Z,12.00
2022-10-19T04:03:59.902Z,12.00
2022-10-19T04:06:29.470Z,12.00
2022-10-19T04:08:56.203Z,12.00
2022-10-19T04:11:24.588Z,12.00
2022-10-19T04:13:51.913Z,12.00
2022-10-19T04:16:18.857Z,12.00
2022-10-19T04:18:45.672Z,12.00
2022-10-19T04:21:25.805Z,12.00
2022-10-19T04:23:53.693Z,12.00
2022-10-19T04:26:20.623Z,12.00
2022-10-19T04:28:47.513Z,12.00
2022-10-19T04:31:14.295Z,12.00
2022-10-19T04:33:41.142Z,12.00
2022-10-19T04:36:09.666Z,12.00
2022-10-19T04:38:36.666Z,12.00
2022-10-19T04:41:11.115Z,12.00
2022-10-19T04:43:37.954Z,12.00
2022-10-19T04:46:09.544Z,12.00
2022-10-19T04:48:37.087Z,12.00
2022-10-19T04:51:04.247Z,12.10
2022-10-19T04:53:31.158Z,12.10
2022-10-19T04:55:58.044Z,12.10
2022-10-19T04:58:24.777Z,12.10
2022-10-19T05:00:51.612Z,12.10
2022-10-19T05:03:18.471Z,12.10
2022-10-19T05:05:45.123Z,12.10
2022-10-19T05:08:11.830Z,12.10
2022-10-19T05:10:38.527Z,12.10
2022-10-19T05:13:05.195Z,12.10
2022-10-19T05:15:31.842Z,12.10
2022-10-19T05:17:58.488Z,12.10
2022-10-19T05:20:25.207Z,12.10
2022-10-19T05:22:51.875Z,12.10
2022-10-19T05:25:18.606Z,12.10
2022-10-19T05:27:45.824Z,12.10
2022-10-19T05:30:14.378Z,12.10
2022-10-19T05:32:41.094Z,12.10
2022-10-19T05:35:08.171Z,12.10
2022-10-19T05:37:35.259Z,12.10
2022-10-19T05:40:02.243Z,12.10
2022-10-19T05:42:28.883Z,12.10
2022-10-19T05:44:55.644Z,12.10
2022-10-19T05:47:24.356Z,12.10
2022-10-19T05:49:51.832Z,12.10
2022-10-19T05:52:18.611Z,12.10
2022-10-19T05:54:45.319Z,12.00
2022-10-19T05:57:12.063Z,12.10
2022-10-19T05:59:39.131Z,12.10
2022-10-19T06:02:06.042Z,12.10
2022-10-19T06:04:33.966Z,12.10
2022-10-19T06:07:01.050Z,12.10
2022-10-19T06:09:27.961Z,12.10
2022-10-19T06:11:54.591Z,12.10
2022-10-19T06:14:21.273Z,12.10
2022-10-19T06:16:47.953Z,12.10
2022-10-19T06:19:14.643Z,12.10
2022-10-19T06:21:43.443Z,12.10
2022-10-19T06:24:13.161Z,12.20
2022-10-19T06:26:39.913Z,12.20
2022-10-19T06:29:06.638Z,12.20
2022-10-19T06:31:34.660Z,12.20
2022-10-19T06:34:01.362Z,12.20
2022-10-19T06:36:29.958Z,12.30
2022-10-19T06:38:56.728Z,12.30
2022-10-19T06:41:23.679Z,12.30
2022-10-19T06:43:54.139Z,12.30
2022-10-19T06:46:23.172Z,12.40
2022-10-19T06:48:55.835Z,12.30
2022-10-19T06:51:22.806Z,12.40
2022-10-19T06:53:54.215Z,12.40
2022-10-19T06:56:24.654Z,12.40
2022-10-19T06:58:51.577Z,12.50
2022-10-19T07:01:18.453Z,12.50
2022-10-19T07:03:45.426Z,12.50
2022-10-19T07:06:12.784Z,12.50
2022-10-19T07:08:40.016Z,12.60
2022-10-19T07:11:11.376Z,12.60
2022-10-19T07:13:38.255Z,12.60
2022-10-19T07:16:14.568Z,12.70
2022-10-19T07:18:44.483Z,12.70
2022-10-19T07:21:13.435Z,12.70
2022-10-19T07:23:40.993Z,12.80
2022-10-19T07:26:12.522Z,12.80
2022-10-19T07:28:40.221Z,12.90
2022-10-19T07:31:12.081Z,12.90
2022-10-19T07:33:38.922Z,13.00
2022-10-19T07:36:08.102Z,13.00
2022-10-19T07:38:35.299Z,13.10
2022-10-19T07:41:09.476Z,13.10
2022-10-19T07:43:36.391Z,13.20
2022-10-19T07:46:05.248Z,13.20
2022-10-19T07:48:32.370Z,13.30
2022-10-19T07:51:00.946Z,13.30
2022-10-19T07:53:27.687Z,13.30
2022-10-19T07:55:54.470Z,13.40
2022-10-19T07:58:21.232Z,13.40
2022-10-19T08:00:48.704Z,13.50
2022-10-19T08:04:13.748Z,13.50
2022-10-19T08:06:04.999Z,13.60
2022-10-19T08:08:31.837Z,13.70
2022-10-19T08:10:58.671Z,13.80
2022-10-19T08:13:25.393Z,13.80
2022-10-19T08:15:52.553Z,13.90
2022-10-19T08:18:21.572Z,13.90
2022-10-19T08:20:49.911Z,14.00
2022-10-19T08:23:16.652Z,14.00
2022-10-19T08:25:43.812Z,14.10
2022-10-19T08:28:10.548Z,14.20
2022-10-19T08:30:37.771Z,14.20
2022-10-19T08:33:07.351Z,14.30
2022-10-19T08:35:35.260Z,14.40
2022-10-19T08:38:02.886Z,14.60
2022-10-19T08:40:30.355Z,14.60
2022-10-19T08:43:10.181Z,14.70
2022-10-19T08:45:44.483Z,14.70
2022-10-19T08:48:32.940Z,14.70
2022-10-19T08:51:00.073Z,14.80
2022-10-19T08:53:38.719Z,14.90
2022-10-19T08:56:50.043Z,15.00
2022-10-19T08:59:18.187Z,15.00
2022-10-19T09:01:52.677Z,15.00
2022-10-19T09:04:32.185Z,15.00
2022-10-19T09:07:19.977Z,15.10
2022-10-19T09:09:53.644Z,15.10
2022-10-19T09:12:34.180Z,15.10
2022-10-19T09:15:11.449Z,15.10
2022-10-19T09:17:38.306Z,15.20
2022-10-19T09:20:22.542Z,15.20
2022-10-19T09:22:58.826Z,15.30
2022-10-19T09:25:26.152Z,15.30
2022-10-19T09:28:19.131Z,15.30
2022-10-19T09:30:45.771Z,15.30
2022-10-19T09:33:24.732Z,15.20
2022-10-19T09:35:51.793Z,15.30
2022-10-19T09:38:19.873Z,15.30
2022-10-19T09:40:46.607Z,15.40
2022-10-19T09:43:20.823Z,15.50
2022-10-19T09:46:19.831Z,15.50
2022-10-19T09:48:51.333Z,15.60
2022-10-19T09:51:18.321Z,15.70
2022-10-19T09:53:46.030Z,15.80
2022-10-19T09:56:24.010Z,15.90
2022-10-19T09:58:52.081Z,16.00
2022-10-19T10:01:43.120Z,16.10
2022-10-19T10:04:17.612Z,16.10
2022-10-19T10:06:46.799Z,16.00
2022-10-19T10:09:17.523Z,16.00
2022-10-19T10:11:46.145Z,16.00
2022-10-19T10:14:15.799Z,16.00
2022-10-19T10:16:42.480Z,16.00
2022-10-19T10:19:15.808Z,16.00
2022-10-19T10:21:50.958Z,16.10
2022-10-19T10:24:18.875Z,16.10
2022-10-19T10:26:53.871Z,16.10
2022-10-19T10:29:28.241Z,16.10
2022-10-19T10:31:56.201Z,16.10
2022-10-19T10:37:27.873Z,16.20
2022-10-19T10:39:57.913Z,16.20
2022-10-19T10:42:42.348Z,16.30
2022-10-19T10:45:23.419Z,16.30
2022-10-19T10:47:50.668Z,16.40
2022-10-19T10:50:22.129Z,16.50
2022-10-19T10:53:00.194Z,16.50
2022-10-19T10:55:26.929Z,16.60
2022-10-19T10:57:59.394Z,16.60
2022-10-19T11:00:26.191Z,16.60
2022-10-19T11:02:55.665Z,16.60
2022-10-19T11:05:32.840Z,16.70
2022-10-19T11:08:41.747Z,16.70
2022-10-19T11:11:19.348Z,16.80
2022-10-19T11:13:48.828Z,16.90
2022-10-19T11:16:17.190Z,17.10
2022-10-19T11:19:19.479Z,17.20
2022-10-19T11:22:07.205Z,17.20
2022-10-19T11:25:02.211Z,17.20
2022-10-19T11:27:47.512Z,17.30
2022-10-19T11:30:24.666Z,17.40
2022-10-19T11:33:06.644Z,17.50
2022-10-19T11:35:55.046Z,17.60
2022-10-19T11:38:29.620Z,17.70
2022-10-19T11:41:24.129Z,17.70
2022-10-19T11:44:16.579Z,17.70
2022-10-19T11:47:17.534Z,17.50
2022-10-19T11:50:02.280Z,17.30
2022-10-19T11:52:46.398Z,17.30
2022-10-19T11:55:28.104Z,17.40
2022-10-19T11:57:57.050Z,17.50
2022-10-19T12:00:39.897Z,17.70
2022-10-19T12:03:09.790Z,17.80
2022-10-19T12:05:52.117Z,17.90
2022-10-19T12:08:49.114Z,17.60
2022-10-19T12:11:24.387Z,17.80
2022-10-19T12:13:55.984Z,17.80
2022-10-19T12:16:23.700Z,17.90
2022-10-19T12:18:58.260Z,17.90
2022-10-19T12:21:36.448Z,17.90
2022-10-19T12:24:04.935Z,18.00
2022-10-19T12:26:34.553Z,18.30
2022-10-19T12:29:03.664Z,18.60
2022-10-19T12:31:30.455Z,19.00
2022-10-19T12:34:13.203Z,19.30
2022-10-19T12:37:20.243Z,19.40
2022-10-19T12:40:01.997Z,19.50
2022-10-19T12:42:30.031Z,19.70
2022-10-19T12:45:08.781Z,19.90
2022-10-19T12:47:35.927Z,20.00
2022-10-19T12:50:03.635Z,20.00
2022-10-19T12:52:49.295Z,20.00
2022-10-19T12:55:15.962Z,19.80
2022-10-19T12:57:48.309Z,19.70
2022-10-19T13:00:25.572Z,19.80
2022-10-19T13:03:01.536Z,20.00
2022-10-19T13:05:29.464Z,20.10
2022-10-19T13:07:56.177Z,20.10
2022-10-19T13:10:26.030Z,20.20
2022-10-19T13:12:52.886Z,20.30
2022-10-19T13:15:34.693Z,20.40
2022-10-19T13:18:02.242Z,20.40
2022-10-19T13:20:29.382Z,20.40
2022-10-19T13:23:04.756Z,20.60
2022-10-19T13:25:38.112Z,20.70
2022-10-19T13:28:09.247Z,20.60
2022-10-19T13:30:38.715Z,20.70
2022-10-19T13:33:30.200Z,20.80
2022-10-19T13:36:00.048Z,20.70
2022-10-19T13:38:28.529Z,20.70
2022-10-19T13:40:55.218Z,20.70
2022-10-19T13:43:26.314Z,20.70
2022-10-19T13:46:12.720Z,20.90
2022-10-19T13:48:58.254Z,20.90
2022-10-19T13:51:32.704Z,20.80
2022-10-19T13:54:23.765Z,20.90
2022-10-19T13:57:09.231Z,20.90
2022-10-19T13:59:57.687Z,21.00
2022-10-19T14:02:45.899Z,21.10
2022-10-19T14:05:50.144Z,21.40
2022-10-19T14:08:46.772Z,21.20
2022-10-19T14:11:13.462Z,20.90
2022-10-19T14:13:40.249Z,20.60
2022-10-19T14:16:07.134Z,20.60
2022-10-19T14:18:35.253Z,20.60
2022-10-19T14:21:06.322Z,20.50
2022-10-19T14:23:38.006Z,20.80
2022-10-19T14:26:19.574Z,20.80
2022-10-19T14:28:46.284Z,20.90
2022-10-19T14:31:18.255Z,20.70
2022-10-19T14:33:50.353Z,20.50
2022-10-19T14:36:18.988Z,20.60
2022-10-19T14:38:46.447Z,20.30
2022-10-19T14:41:20.823Z,20.30
2022-10-19T14:43:47.544Z,20.50
2022-10-19T14:46:15.627Z,20.90
2022-10-19T14:48:46.834Z,21.00
2022-10-19T14:51:40.411Z,20.40
2022-10-19T14:54:09.125Z,20.10
2022-10-19T14:56:41.725Z,19.60
2022-10-19T14:59:20.287Z,19.40
2022-10-19T15:01:50.983Z,19.10
2022-10-19T15:04:21.706Z,18.80
2022-10-19T15:06:48.508Z,18.70
2022-10-19T15:09:37.425Z,18.50
2022-10-19T15:12:14.856Z,19.00
2022-10-19T15:14:41.586Z,19.30
2022-10-19T15:17:29.071Z,19.40
2022-10-19T15:19:58.395Z,19.40
2022-10-19T15:22:31.335Z,19.30
2022-10-19T15:25:21.356Z,19.00
2022-10-19T15:27:50.892Z,18.80
2022-10-19T15:30:17.548Z,18.70
2022-10-19T15:32:49.372Z,18.40
2022-10-19T15:35:28.821Z,18.40
2022-10-19T15:38:05.918Z,18.30
2022-10-19T15:40:37.999Z,18.20
2022-10-19T15:43:39.167Z,18.00
2022-10-19T15:46:07.317Z,17.80
2022-10-19T15:48:50.017Z,17.70
2022-10-19T15:51:25.370Z,17.50
2022-10-19T15:53:59.265Z,17.30
2022-10-19T15:56:28.716Z,17.10
2022-10-19T15:58:56.771Z,16.90
2022-10-19T16:01:26.180Z,16.80
2022-10-19T16:03:53.703Z,16.60
2022-10-19T16:06:21.485Z,16.60
2022-10-19T16:08:48.255Z,16.40
2022-10-19T16:11:19.100Z,16.30
2022-10-19T16:13:45.900Z,16.10
2022-10-19T16:16:14.752Z,16.10
2022-10-19T16:18:41.558Z,16.00
2022-10-19T16:21:08.303Z,15.90
2022-10-19T16:23:39.444Z,15.80
2022-10-19T16:26:08.935Z,15.70
2022-10-19T16:28:35.683Z,15.60
2022-10-19T16:31:03.000Z,15.50
2022-10-19T16:33:29.689Z,15.50
2022-10-19T16:35:56.518Z,15.40
2022-10-19T16:38:23.237Z,15.30
2022-10-19T16:40:50.959Z,15.30
2022-10-19T16:43:17.682Z,15.20
2022-10-19T16:45:45.003Z,15.10
2022-10-19T16:48:14.741Z,15.10
2022-10-19T16:53:10.375Z,15.00
2022-10-19T16:55:40.573Z,15.00
2022-10-19T16:58:07.355Z,14.90
2022-10-19T17:00:34.382Z,14.90
2022-10-19T17:03:01.096Z,14.90
2022-10-19T17:05:27.728Z,14.80
2022-10-19T17:07:54.530Z,14.80
2022-10-19T17:10:21.819Z,14.80
2022-10-19T17:12:49.092Z,14.80
2022-10-19T17:15:41.534Z,14.70
2022-10-19T17:18:02.633Z,14.70
2022-10-19T17:20:29.296Z,14.70
2022-10-19T17:22:56.024Z,14.70
2022-10-19T17:25:23.197Z,14.70
2022-10-19T17:27:52.735Z,14.60
2022-10-19T17:30:20.601Z,14.60
2022-10-19T17:32:47.400Z,14.60
2022-10-19T17:35:14.096Z,14.50
2022-10-19T17:37:40.987Z,14.50
2022-10-19T17:40:08.342Z,14.50
2022-10-19T17:42:36.648Z,14.50
2022-10-19T17:45:03.454Z,14.50
2022-10-19T17:47:30.904Z,14.50
2022-10-19T17:49:57.598Z,14.50
2022-10-19T17:52:24.350Z,14.50
2022-10-19T17:55:11.244Z,14.50
2022-10-19T17:57:38.238Z,14.50
2022-10-19T18:00:07.059Z,14.50
2022-10-19T18:02:35.454Z,14.50
2022-10-19T18:05:02.955Z,14.50
2022-10-19T18:07:29.634Z,14.50
2022-10-19T18:09:56.324Z,14.50
2022-10-19T18:12:24.082Z,14.50
2022-10-19T18:14:51.246Z,14.40
2022-10-19T18:17:17.980Z,14.50
2022-10-19T18:19:44.832Z,14.50
2022-10-19T18:22:11.659Z,14.50
2022-10-19T18:24:38.544Z,14.60
2022-10-19T18:27:05.182Z,14.50
2022-10-19T18:29:32.462Z,14.50
2022-10-19T18:31:59.223Z,14.60
2022-10-19T18:34:26.287Z,14.60
2022-10-19T18:36:53.010Z,14.60
2022-10-19T18:39:19.770Z,14.70
2022-10-19T18:41:48.236Z,14.70
2022-10-19T18:44:14.962Z,14.70
2022-10-19T18:46:41.719Z,14.70
2022-10-19T18:49:09.558Z,14.70
2022-10-19T18:51:36.599Z,14.70
2022-10-19T18:54:04.439Z,14.80
2022-10-19T18:56:33.264Z,14.70
2022-10-19T18:59:00.023Z,14.70
2022-10-19T19:01:27.580Z,14.70
2022-10-19T19:03:58.851Z,14.70
2022-10-19T19:06:28.907Z,14.70
2022-10-19T19:08:59.550Z,14.70
2022-10-19T19:11:30.620Z,14.70
2022-10-19T19:14:01.508Z,14.70
2022-10-19T19:16:29.734Z,14.70
2022-10-19T19:18:56.544Z,14.70
2022-10-19T19:21:27.905Z,14.70
2022-10-19T19:23:55.231Z,14.70
2022-10-19T19:26:22.863Z,14.70
2022-10-19T19:28:51.714Z,14.80
2022-10-19T19:31:19.806Z,14.70
2022-10-19T19:33:47.024Z,14.70
2022-10-19T19:36:15.880Z,14.80
2022-10-19T19:38:43.074Z,14.80
2022-10-19T19:41:11.928Z,14.80
2022-10-19T19:43:39.473Z,14.80
2022-10-19T19:46:12.526Z,14.80
2022-10-19T19:48:40.011Z,14.90
2022-10-19T19:51:11.569Z,14.90
2022-10-19T19:53:38.478Z,14.90
2022-10-19T19:56:08.749Z,14.90
2022-10-19T19:58:35.713Z,14.90
2022-10-19T20:01:13.618Z,14.90
2022-10-19T20:03:40.821Z,14.90
2022-10-19T20:06:07.788Z,14.90
2022-10-19T20:08:36.288Z,14.90
2022-10-19T20:11:04.162Z,14.90
2022-10-19T20:13:30.926Z,14.90
2022-10-19T20:15:58.954Z,14.90
2022-10-19T20:18:25.816Z,14.90
2022-10-19T20:20:52.553Z,14.90
2022-10-19T20:23:19.254Z,14.80
2022-10-19T20:25:47.342Z,14.80
2022-10-19T20:28:14.030Z,14.80
2022-10-19T20:30:40.926Z,14.80
2022-10-19T20:33:07.789Z,14.80
2022-10-19T20:35:36.606Z,14.80
2022-10-19T20:38:04.456Z,14.80
2022-10-19T20:40:31.549Z,14.80
2022-10-19T20:42:58.947Z,14.80
2022-10-19T20:45:25.834Z,14.70
2022-10-19T20:47:52.594Z,14.70
2022-10-19T20:50:21.798Z,14.60
2022-10-19T20:52:48.865Z,14.60
2022-10-19T20:55:16.273Z,14.60
2022-10-19T20:57:43.026Z,14.60
2022-10-19T21:00:10.408Z,14.50
2022-10-19T21:02:38.166Z,14.50
2022-10-19T21:05:05.856Z,14.50
2022-10-19T21:07:32.663Z,14.40
2022-10-19T21:09:59.406Z,14.40
2022-10-19T21:12:26.070Z,14.30
2022-10-19T21:14:52.950Z,14.30
2022-10-19T21:17:20.206Z,14.20
2022-10-19T21:19:47.971Z,14.20
2022-10-19T21:22:14.748Z,14.20
2022-10-19T21:24:41.938Z,14.10
2022-10-19T21:27:09.088Z,14.10
2022-10-19T21:29:36.648Z,14.20
2022-10-19T21:32:03.723Z,14.20
2022-10-19T21:34:30.893Z,14.20
2022-10-19T21:36:57.812Z,14.20
2022-10-19T21:39:24.560Z,14.30
2022-10-19T21:41:51.388Z,14.30
2022-10-19T21:44:18.402Z,14.40
2022-10-19T21:46:47.299Z,14.40
2022-10-19T21:49:14.047Z,14.40
2022-10-19T21:51:51.095Z,14.50
2022-10-19T21:54:19.341Z,14.50
2022-10-19T21:56:46.359Z,14.50
2022-10-19T21:59:13.669Z,14.50
2022-10-19T22:01:41.617Z,14.50
2022-10-19T22:04:12.041Z,14.50
2022-10-19T22:06:38.759Z,14.50
2022-10-19T22:09:06.929Z,14.50
2022-10-19T22:11:33.791Z,14.50
2022-10-19T22:14:01.524Z,14.50
2022-10-19T22:16:28.495Z,14.50
2022-10-19T22:18:55.712Z,14.60
2022-10-19T22:21:24.606Z,14.60
2022-10-19T22:23:52.918Z,14.60
2022-10-19T22:26:21.946Z,14.60
2022-10-19T22:28:48.695Z,14.60
2022-10-19T22:31:15.839Z,14.60
2022-10-19T22:33:42.623Z,14.60
2022-10-19T22:36:10.358Z,14.60
2022-10-19T22:38:37.055Z,14.60
2022-10-19T22:42:00.588Z,14.60
2022-10-19T22:44:27.298Z,14.60
2022-10-19T22:46:53.968Z,14.60
2022-10-19T22:49:21.240Z,14.60
2022-10-19T22:51:47.935Z,14.50
2022-10-19T22:54:14.797Z,14.50
2022-10-19T22:56:41.992Z,14.40
2022-10-19T22:59:09.056Z,14.40
2022-10-19T23:01:36.189Z,14.50
2022-10-19T23:04:02.908Z,14.50
2022-10-19T23:06:29.697Z,14.50
2022-10-19T23:08:57.089Z,14.50
2022-10-19T23:11:24.275Z,14.50
2022-10-19T23:13:50.992Z,14.50
2022-10-19T23:16:17.728Z,14.50
2022-10-19T23:18:44.767Z,14.50
2022-10-19T23:21:12.674Z,14.50
2022-10-19T23:23:39.587Z,14.40
2022-10-19T23:26:07.663Z,14.40
2022-10-19T23:28:35.330Z,14.40
2022-10-19T23:31:09.763Z,14.30
2022-10-19T23:33:36.848Z,14.30
2022-10-19T23:36:12.202Z,14.30
2022-10-19T23:38:39.006Z,14.30
2022-10-19T23:41:05.958Z,14.30
2022-10-19T23:43:32.967Z,14.30
2022-10-19T23:45:59.869Z,14.20
2022-10-19T23:48:27.936Z,14.30
2022-10-19T23:51:03.607Z,14.30
2022-10-19T23:53:31.065Z,14.30
2022-10-19T23:56:14.426Z,14.30
2022-10-19T23:58:42.124Z,14.30
